sensor_id;sensor_type;location;lat;lon;timestamp;pressure;altitude;pressure_sealevel;temperature;humidity
56558;BME280;43358;50.356;12.456;2023-04-09T15:05:37;94618;;;7.1;93.6
56558;BME280;43358;50.356;12.456;2023-04-09T15:06:31;96168;;;11.2;72
56558;BME280;43358;50.356;12.456;2023-04-09T15:07:31;96165;;;11.2;71.3
56558;BME280;43358;50.356;12.456;2023-04-09T15:08:31;96164;;;11.2;72.4
56558;BME280;43358;50.356;12.456;2023-04-09T15:08:55;96164;;;11.2;72.4
56558;BME280;43358;50.356;12.456;2023-04-09T15:09:31;96166;;;11.2;71.3
56558;BME280;43358;50.356;12.456;2023-04-09T15:10:31;96164;;;11.2;70.7
56558;BME280;43358;50.356;12.456;2023-04-09T15:10:36;96164;;;11.2;70.7
56558;BME280;43358;50.356;12.456;2023-04-09T15:11:31;96163;;;11.2;69.7
56558;BME280;43358;50.356;12.456;2023-04-09T15:12:31;96162;;;11.2;70.8
56558;BME280;43358;50.356;12.456;2023-04-09T15:13:31;96163;;;11.2;69.3
56558;BME280;43358;50.356;12.456;2023-04-09T15:15:42;96159;;;11.2;69.9
56558;BME280;43358;50.356;12.456;2023-04-09T15:16:31;96160;;;11.2;69.9
56558;BME280;43358;50.356;12.456;2023-04-09T15:17:31;96159;;;11.2;70.4
56558;BME280;43358;50.356;12.456;2023-04-09T15:18:31;96160;;;11.2;70.9
56558;BME280;43358;50.356;12.456;2023-04-09T15:20:30;96158;;;11.2;71
56558;BME280;43358;50.356;12.456;2023-04-09T15:21:31;96157;;;11.2;70.4
56558;BME280;43358;50.356;12.456;2023-04-09T15:22:34;96159;;;11.2;71
56558;BME280;43358;50.356;12.456;2023-04-09T15:22:45;96159;;;11.2;71
56558;BME280;43358;50.356;12.456;2023-04-09T15:23:35;96160;;;11.1;71.6
56558;BME280;43358;50.356;12.456;2023-04-09T15:24:37;96160;;;11.1;71.8
56558;BME280;43358;50.356;12.456;2023-04-09T15:25:52;96158;;;11;71
56558;BME280;43358;50.356;12.456;2023-04-09T15:26:48;96156;;;11;71.9
56558;BME280;43358;50.356;12.456;2023-04-09T15:27:48;96160;;;11;71.4
56558;BME280;43358;50.356;12.456;2023-04-09T15:28:50;96161;;;11;72.2
56558;BME280;43358;50.356;12.456;2023-04-09T15:29:54;96161;;;11;72.2
56558;BME280;43358;50.356;12.456;2023-04-09T15:30:54;96160;;;11;72.6
56558;BME280;43358;50.356;12.456;2023-04-09T15:31:40;96161;;;10.9;72.9
56558;BME280;43358;50.356;12.456;2023-04-09T15:31:44;96161;;;10.9;72.9
56558;BME280;43358;50.356;12.456;2023-04-09T15:32:19;96161;;;10.9;72.9
56558;BME280;43358;50.356;12.456;2023-04-09T15:33:50;96161;;;10.9;72.9
56558;BME280;43358;50.356;12.456;2023-04-09T15:34:17;96161;;;10.9;73.2
56558;BME280;43358;50.356;12.456;2023-04-09T15:34:46;96157;;;10.9;71.8
56558;BME280;43358;50.356;12.456;2023-04-09T15:35:28;96157;;;10.9;71.8
56558;BME280;43358;50.356;12.456;2023-04-09T15:36:07;96161;;;11;71.4
56558;BME280;43358;50.356;12.456;2023-04-09T15:37:30;96159;;;11;71.3
56558;BME280;43358;50.356;12.456;2023-04-09T15:37:31;96159;;;11;70.9
56558;BME280;43358;50.356;12.456;2023-04-09T15:38:51;96159;;;11;70.7
56558;BME280;43358;50.356;12.456;2023-04-09T15:39:50;96156;;;11;70.8
56558;BME280;43358;50.356;12.456;2023-04-09T15:40:31;96161;;;11;70.5
56558;BME280;43358;50.356;12.456;2023-04-09T15:41:31;96161;;;11;71.5
56558;BME280;43358;50.356;12.456;2023-04-09T15:42:31;96158;;;11;72.7
56558;BME280;43358;50.356;12.456;2023-04-09T15:43:31;96160;;;11;72
56558;BME280;43358;50.356;12.456;2023-04-09T15:44:16;96160;;;11;72
56558;BME280;43358;50.356;12.456;2023-04-09T15:44:31;96160;;;11;72.2
56558;BME280;43358;50.356;12.456;2023-04-09T15:44:54;96160;;;11;72.2
56558;BME280;43358;50.356;12.456;2023-04-09T15:45:31;96160;;;11;72
56558;BME280;43358;50.356;12.456;2023-04-09T15:45:39;96160;;;11;72
56558;BME280;43358;50.356;12.456;2023-04-09T15:46:31;96160;;;11;71.9
56558;BME280;43358;50.356;12.456;2023-04-09T15:46:36;96160;;;11;71.9
56558;BME280;43358;50.356;12.456;2023-04-09T15:47:01;96160;;;11;71.9
56558;BME280;43358;50.356;12.456;2023-04-09T15:47:31;96160;;;10.9;72.3
56558;BME280;43358;50.356;12.456;2023-04-09T15:48:31;96161;;;10.9;73.3
56558;BME280;43358;50.356;12.456;2023-04-09T15:49:12;96160;;;10.9;73.3
56558;BME280;43358;50.356;12.456;2023-04-09T15:50:30;96162;;;10.9;74.4
56558;BME280;43358;50.356;12.456;2023-04-09T15:51:30;96161;;;10.9;72.8
56558;BME280;43358;50.356;12.456;2023-04-09T15:52:30;96163;;;10.9;71.7
56558;BME280;43358;50.356;12.456;2023-04-09T15:53:31;96162;;;10.9;71.4
56558;BME280;43358;50.356;12.456;2023-04-09T15:54:45;96162;;;10.9;71.8
56558;BME280;43358;50.356;12.456;2023-04-09T15:55:35;96162;;;10.9;71.2
56558;BME280;43358;50.356;12.456;2023-04-09T15:56:31;96159;;;10.8;71.4
56558;BME280;43358;50.356;12.456;2023-04-09T15:57:31;96159;;;10.8;71.6
56558;BME280;43358;50.356;12.456;2023-04-09T15:59:31;96157;;;10.7;71
56558;BME280;43358;50.356;12.456;2023-04-09T16:00:31;96158;;;10.7;72.5
56558;BME280;43358;50.356;12.456;2023-04-09T16:03:31;96158;;;10.8;71.5
56558;BME280;43358;50.356;12.456;2023-04-09T16:03:31;96159;;;10.7;71.8
56558;BME280;43358;50.356;12.456;2023-04-09T16:04:31;96161;;;10.9;71.2
56558;BME280;43358;50.356;12.456;2023-04-09T16:05:31;96158;;;11;70.8
56558;BME280;43358;50.356;12.456;2023-04-09T16:07:31;96156;;;11;70.4
56558;BME280;43358;50.356;12.456;2023-04-09T16:08:31;96159;;;11;70.6
56558;BME280;43358;50.356;12.456;2023-04-09T16:09:31;96157;;;11;70.2
56558;BME280;43358;50.356;12.456;2023-04-09T16:10:31;96155;;;10.9;70.4
56558;BME280;43358;50.356;12.456;2023-04-09T16:11:05;96155;;;10.9;70.4
56558;BME280;43358;50.356;12.456;2023-04-09T16:11:31;96157;;;10.9;70.4
56558;BME280;43358;50.356;12.456;2023-04-09T16:12:09;96157;;;10.9;70.4
56558;BME280;43358;50.356;12.456;2023-04-09T16:12:31;96154;;;10.8;71
56558;BME280;43358;50.356;12.456;2023-04-09T16:12:49;96154;;;10.8;71
56558;BME280;43358;50.356;12.456;2023-04-09T16:13:31;96156;;;10.7;70.7
56558;BME280;43358;50.356;12.456;2023-04-09T16:14:32;96160;;;10.7;71.4
56558;BME280;43358;50.356;12.456;2023-04-09T16:15:15;96160;;;10.7;71.4
56558;BME280;43358;50.356;12.456;2023-04-09T16:15:48;96160;;;10.7;71.4
56558;BME280;43358;50.356;12.456;2023-04-09T16:17:04;96161;;;10.6;72.6
56558;BME280;43358;50.356;12.456;2023-04-09T16:18:07;96160;;;10.6;72.6
56558;BME280;43358;50.356;12.456;2023-04-09T16:19:05;96160;;;10.6;72.9
56558;BME280;43358;50.356;12.456;2023-04-09T16:19:44;96163;;;10.6;72.9
56558;BME280;43358;50.356;12.456;2023-04-09T16:20:08;96163;;;10.6;72.9
56558;BME280;43358;50.356;12.456;2023-04-09T16:20:31;96161;;;10.6;72.2
56558;BME280;43358;50.356;12.456;2023-04-09T16:20:55;96161;;;10.6;72.2
56558;BME280;43358;50.356;12.456;2023-04-09T16:21:50;96161;;;10.6;72.2
56558;BME280;43358;50.356;12.456;2023-04-09T16:22:56;96161;;;10.6;72.2
56558;BME280;43358;50.356;12.456;2023-04-09T16:24:04;96161;;;10.6;72.2
56558;BME280;43358;50.356;12.456;2023-04-09T16:24:49;96161;;;10.6;72.2
56558;BME280;43358;50.356;12.456;2023-04-09T16:25:26;96161;;;10.6;72.2
56558;BME280;43358;50.356;12.456;2023-04-09T16:27:04;96161;;;10.6;72.2
56558;BME280;43358;50.356;12.456;2023-04-09T16:27:46;96161;;;10.6;72.2
56558;BME280;43358;50.356;12.456;2023-04-09T16:28:47;96161;;;10.6;72.2
56558;BME280;43358;50.356;12.456;2023-04-09T16:31:29;96161;;;10.6;72.2
56558;BME280;43358;50.356;12.456;2023-04-09T19:54:10;96287;;;5.4;87.3
56558;BME280;43358;50.356;12.456;2023-04-09T19:56:48;96284;;;5.3;87.7
56558;BME280;43358;50.356;12.456;2023-04-09T19:58:31;96286;;;5.3;87.7
56558;BME280;43358;50.356;12.456;2023-04-09T19:59:54;96286;;;5.3;87.7
56558;BME280;43358;50.356;12.456;2023-04-09T20:02:09;96288;;;5.2;87.9
56558;BME280;43358;50.356;12.456;2023-04-09T20:03:31;96290;;;5.1;88.1
56558;BME280;43358;50.356;12.456;2023-04-09T20:08:46;96300;;;4.9;88.2
56558;BME280;43358;50.356;12.456;2023-04-09T20:09:48;96301;;;4.9;88.3
56558;BME280;43358;50.356;12.456;2023-04-09T20:10:50;96302;;;4.9;88.3
56558;BME280;43358;50.356;12.456;2023-04-09T20:11:52;96300;;;4.9;88.2
56558;BME280;43358;50.356;12.456;2023-04-09T20:12:54;96299;;;4.9;88.3
56558;BME280;43358;50.356;12.456;2023-04-09T20:15:10;96295;;;4.8;88.2
56558;BME280;43358;50.356;12.456;2023-04-09T20:16:00;96296;;;4.8;88.2
56558;BME280;43358;50.356;12.456;2023-04-09T20:17:02;96296;;;4.8;88.3
56558;BME280;43358;50.356;12.456;2023-04-09T20:18:04;96295;;;4.7;88.1
56558;BME280;43358;50.356;12.456;2023-04-09T20:19:07;96297;;;4.7;88.2
56558;BME280;43358;50.356;12.456;2023-04-09T20:20:10;96296;;;4.7;88.2
56558;BME280;43358;50.356;12.456;2023-04-09T20:21:12;96297;;;4.6;88.3
56558;BME280;43358;50.356;12.456;2023-04-09T20:22:14;96299;;;4.6;88.3
56558;BME280;43358;50.356;12.456;2023-04-09T20:23:16;96302;;;4.6;88.5
56558;BME280;43358;50.356;12.456;2023-04-09T20:24:18;96305;;;4.6;88.5
56558;BME280;43358;50.356;12.456;2023-04-09T20:25:20;96306;;;4.6;88.4
56558;BME280;43358;50.356;12.456;2023-04-09T20:27:24;96309;;;4.5;88.2
56558;BME280;43358;50.356;12.456;2023-04-09T20:28:26;96308;;;4.5;88.3
56558;BME280;43358;50.356;12.456;2023-04-09T20:29:28;96315;;;4.5;88.2
56558;BME280;43358;50.356;12.456;2023-04-09T20:30:30;96313;;;4.5;88.2
56558;BME280;43358;50.356;12.456;2023-04-09T20:31:46;96316;;;4.4;88.5
56558;BME280;43358;50.356;12.456;2023-04-09T20:32:34;96308;;;4.4;88.5
56558;BME280;43358;50.356;12.456;2023-04-09T20:33:36;96311;;;4.4;88.6
56558;BME280;43358;50.356;12.456;2023-04-09T20:34:38;96312;;;4.3;88.8
56558;BME280;43358;50.356;12.456;2023-04-09T20:37:31;96311;;;4.2;89.2
56558;BME280;43358;50.356;12.456;2023-04-09T20:38:31;96309;;;4.2;89.3
56558;BME280;43358;50.356;12.456;2023-04-09T20:40:51;96308;;;4.2;89.1
56558;BME280;43358;50.356;12.456;2023-04-09T20:41:53;96307;;;4.1;89.2
56558;BME280;43358;50.356;12.456;2023-04-09T20:42:55;96310;;;4.1;89.3
56558;BME280;43358;50.356;12.456;2023-04-09T20:43:57;96307;;;4.1;89.2
56558;BME280;43358;50.356;12.456;2023-04-09T20:44:59;96307;;;4.1;89.1
56558;BME280;43358;50.356;12.456;2023-04-09T20:46:31;96310;;;4;89.2
56558;BME280;43358;50.356;12.456;2023-04-09T20:48:31;96313;;;4;89.1
56558;BME280;43358;50.356;12.456;2023-04-09T20:50:10;96313;;;4;89.2
56558;BME280;43358;50.356;12.456;2023-04-09T20:51:13;96314;;;4;89.2
56558;BME280;43358;50.356;12.456;2023-04-09T20:52:15;96312;;;4;89.3
56558;BME280;43358;50.356;12.456;2023-04-09T20:53:17;96312;;;3.9;89.3
56558;BME280;43358;50.356;12.456;2023-04-09T20:54:19;96316;;;3.9;89.3
56558;BME280;43358;50.356;12.456;2023-04-09T20:55:31;96314;;;3.9;89.3
56558;BME280;43358;50.356;12.456;2023-04-09T20:56:31;96315;;;3.9;88.9
56558;BME280;43358;50.356;12.456;2023-04-09T20:59:31;96315;;;3.8;89.3
56558;BME280;43358;50.356;12.456;2023-04-09T21:00:33;96311;;;3.8;89.4
56558;BME280;43358;50.356;12.456;2023-04-09T21:01:35;96312;;;3.8;89.4
56558;BME280;43358;50.356;12.456;2023-04-09T21:02:37;96310;;;3.8;89.3
56558;BME280;43358;50.356;12.456;2023-04-09T21:09:01;96312;;;3.7;89.4
56558;BME280;43358;50.356;12.456;2023-04-09T21:10:05;96309;;;3.7;89.4
56558;BME280;43358;50.356;12.456;2023-04-09T21:11:06;96310;;;3.6;89.4
56558;BME280;43358;50.356;12.456;2023-04-09T21:12:31;96311;;;3.5;89.5
56558;BME280;43358;50.356;12.456;2023-04-09T21:14:12;96318;;;3.5;89.7
56558;BME280;43358;50.356;12.456;2023-04-09T21:15:15;96316;;;3.5;89.9
56558;BME280;43358;50.356;12.456;2023-04-09T21:16:18;96317;;;3.4;90
56558;BME280;43358;50.356;12.456;2023-04-09T21:17:21;96320;;;3.4;90.1
56558;BME280;43358;50.356;12.456;2023-04-09T21:18:23;96316;;;3.4;90.1
56558;BME280;43358;50.356;12.456;2023-04-09T21:21:29;96320;;;3.4;90.1
56558;BME280;43358;50.356;12.456;2023-04-09T21:22:32;96317;;;3.3;90.1
56558;BME280;43358;50.356;12.456;2023-04-09T21:25:37;96317;;;3.3;89.9
56558;BME280;43358;50.356;12.456;2023-04-09T21:26:52;96319;;;3.3;89.9
56558;BME280;43358;50.356;12.456;2023-04-09T21:27:42;96319;;;3.2;90.1
56558;BME280;43358;50.356;12.456;2023-04-09T21:32:31;96318;;;3.2;89.7
56558;BME280;43358;50.356;12.456;2023-04-09T21:34:43;96317;;;3.2;89.3
56558;BME280;43358;50.356;12.456;2023-04-09T21:35:31;96320;;;3.1;89.5
56558;BME280;43358;50.356;12.456;2023-04-09T21:37:52;96320;;;3.1;89.6
56558;BME280;43358;50.356;12.456;2023-04-09T21:38:54;96320;;;3.1;89.5
56558;BME280;43358;50.356;12.456;2023-04-09T21:45:07;96314;;;3;89.6
56558;BME280;43358;50.356;12.456;2023-04-09T21:46:31;96313;;;3;89.6
56558;BME280;43358;50.356;12.456;2023-04-09T21:49:28;96314;;;3;89.6
56558;BME280;43358;50.356;12.456;2023-04-09T21:50:17;96316;;;2.9;89.4
56558;BME280;43358;50.356;12.456;2023-04-09T21:51:19;96316;;;2.9;89.7
56558;BME280;43358;50.356;12.456;2023-04-09T21:52:21;96315;;;2.9;89.9
56558;BME280;43358;50.356;12.456;2023-04-09T21:53:23;96315;;;2.9;89.9
56558;BME280;43358;50.356;12.456;2023-04-09T21:54:25;96316;;;2.9;89.9
56558;BME280;43358;50.356;12.456;2023-04-09T21:55:27;96317;;;2.9;89.9
56558;BME280;43358;50.356;12.456;2023-04-09T21:56:29;96319;;;2.8;89.6
56558;BME280;43358;50.356;12.456;2023-04-09T21:57:31;96319;;;2.8;89.8
56558;BME280;43358;50.356;12.456;2023-04-09T21:58:34;96322;;;2.7;89.7
56558;BME280;43358;50.356;12.456;2023-04-09T21:59:35;96324;;;2.7;89.5
56558;BME280;43358;50.356;12.456;2023-04-09T22:00:37;96326;;;2.7;89.4
56558;BME280;43358;50.356;12.456;2023-04-09T22:01:39;96324;;;2.7;89.4
56558;BME280;43358;50.356;12.456;2023-04-09T22:03:50;96325;;;2.7;89.4
56558;BME280;43358;50.356;12.456;2023-04-09T22:04:52;96327;;;2.6;89.4
56558;BME280;43358;50.356;12.456;2023-04-09T22:05:54;96331;;;2.6;89.4
56558;BME280;43358;50.356;12.456;2023-04-09T22:06:57;96331;;;2.6;89.4
56558;BME280;43358;50.356;12.456;2023-04-09T22:09:00;96333;;;2.6;89.3
56558;BME280;43358;50.356;12.456;2023-04-09T22:10:16;96334;;;2.6;89.5
56558;BME280;43358;50.356;12.456;2023-04-09T22:11:05;96330;;;2.6;89.5
56558;BME280;43358;50.356;12.456;2023-04-09T22:13:08;96333;;;2.5;90
56558;BME280;43358;50.356;12.456;2023-04-09T22:15:13;96335;;;2.5;90.2
56558;BME280;43358;50.356;12.456;2023-04-09T22:16:15;96334;;;2.5;90.2
56558;BME280;43358;50.356;12.456;2023-04-09T22:17:17;96331;;;2.5;90.1
56558;BME280;43358;50.356;12.456;2023-04-09T22:18:19;96332;;;2.5;90.1
56558;BME280;43358;50.356;12.456;2023-04-09T22:23:31;96333;;;2.4;89.9
56558;BME280;43358;50.356;12.456;2023-04-09T22:24:32;96334;;;2.4;90
56558;BME280;43358;50.356;12.456;2023-04-09T22:25:34;96330;;;2.3;89.9
56558;BME280;43358;50.356;12.456;2023-04-09T22:27:41;96330;;;2.3;90
56558;BME280;43358;50.356;12.456;2023-04-09T22:28:43;96329;;;2.3;90
56558;BME280;43358;50.356;12.456;2023-04-09T22:29:45;96328;;;2.3;90.1
56558;BME280;43358;50.356;12.456;2023-04-09T22:30:47;96328;;;2.3;90.2
56558;BME280;43358;50.356;12.456;2023-04-09T22:31:49;96328;;;2.3;90.3
56558;BME280;43358;50.356;12.456;2023-04-09T22:32:51;96325;;;2.2;90.5
56558;BME280;43358;50.356;12.456;2023-04-09T22:34:55;96323;;;2.2;90.6
56558;BME280;43358;50.356;12.456;2023-04-09T22:35:57;96323;;;2.2;90.6
56558;BME280;43358;50.356;12.456;2023-04-09T22:36:59;96321;;;2.2;90.5
56558;BME280;43358;50.356;12.456;2023-04-09T22:38:01;96321;;;2.2;90.5
56558;BME280;43358;50.356;12.456;2023-04-09T22:39:03;96322;;;2.2;90.3
56558;BME280;43358;50.356;12.456;2023-04-09T22:40:05;96320;;;2.2;90.5
56558;BME280;43358;50.356;12.456;2023-04-09T22:41:07;96319;;;2.2;90.1
56558;BME280;43358;50.356;12.456;2023-04-09T22:42:09;96322;;;2.2;90.1
56558;BME280;43358;50.356;12.456;2023-04-09T22:43:11;96316;;;2.2;90.2
56558;BME280;43358;50.356;12.456;2023-04-09T22:44:13;96322;;;2.1;90.2
56558;BME280;43358;50.356;12.456;2023-04-09T22:45:15;96321;;;2.1;90.2
56558;BME280;43358;50.356;12.456;2023-04-09T22:46:17;96321;;;2.1;90.1
56558;BME280;43358;50.356;12.456;2023-04-09T22:47:19;96324;;;2.1;90.1
56558;BME280;43358;50.356;12.456;2023-04-09T22:48:34;96319;;;2.1;90.1
56558;BME280;43358;50.356;12.456;2023-04-09T22:50:25;96324;;;2.1;90.1
56558;BME280;43358;50.356;12.456;2023-04-09T22:51:27;96325;;;2;90.1
56558;BME280;43358;50.356;12.456;2023-04-09T22:53:31;96324;;;2;90.1
56558;BME280;43358;50.356;12.456;2023-04-09T22:54:33;96325;;;2;90.5
56558;BME280;43358;50.356;12.456;2023-04-09T22:55:35;96326;;;2;90.5
56558;BME280;43358;50.356;12.456;2023-04-09T22:57:39;96329;;;2;90.3
56558;BME280;43358;50.356;12.456;2023-04-09T22:58:41;96327;;;1.9;90.3
56558;BME280;43358;50.356;12.456;2023-04-09T22:59:43;96329;;;1.9;90.3
56558;BME280;43358;50.356;12.456;2023-04-09T23:00:45;96332;;;1.9;90.3
56558;BME280;43358;50.356;12.456;2023-04-09T23:01:47;96335;;;1.9;90.2
56558;BME280;43358;50.356;12.456;2023-04-09T23:05:08;96334;;;1.9;90
56558;BME280;43358;50.356;12.456;2023-04-09T23:07:12;96333;;;1.8;90
56558;BME280;43358;50.356;12.456;2023-04-09T23:08:14;96333;;;1.8;90
56558;BME280;43358;50.356;12.456;2023-04-09T23:09:17;96333;;;1.8;90
56558;BME280;43358;50.356;12.456;2023-04-09T23:10:20;96337;;;1.8;90
56558;BME280;43358;50.356;12.456;2023-04-09T23:11:24;96333;;;1.8;90.1
56558;BME280;43358;50.356;12.456;2023-04-09T23:12:26;96329;;;1.8;90.2
56558;BME280;43358;50.356;12.456;2023-04-09T23:17:21;96329;;;1.7;90.3
56558;BME280;43358;50.356;12.456;2023-04-09T23:18:23;96327;;;1.7;90.4
56558;BME280;43358;50.356;12.456;2023-04-09T23:19:25;96327;;;1.7;90.3
56558;BME280;43358;50.356;12.456;2023-04-09T23:21:29;96325;;;1.7;90.4
56558;BME280;43358;50.356;12.456;2023-04-09T23:22:31;96327;;;1.7;90.2
56558;BME280;43358;50.356;12.456;2023-04-09T23:25:52;96326;;;1.7;90.3
56558;BME280;43358;50.356;12.456;2023-04-09T23:27:58;96326;;;1.7;90.1
56558;BME280;43358;50.356;12.456;2023-04-09T23:29:48;96330;;;1.6;90.2
56558;BME280;43358;50.356;12.456;2023-04-09T23:30:50;96329;;;1.6;90.2
56558;BME280;43358;50.356;12.456;2023-04-09T23:34:31;96332;;;1.5;90.2
56558;BME280;43358;50.356;12.456;2023-04-09T23:39:51;96331;;;1.5;90.1
56558;BME280;43358;50.356;12.456;2023-04-09T23:42:45;96326;;;1.4;90.1
56558;BME280;43358;50.356;12.456;2023-04-09T23:49:18;96317;;;1.3;90.3
56558;BME280;43358;50.356;12.456;2023-04-09T23:50:20;96317;;;1.2;91.1
